Stena Atlantica — ZCPR7 — position and weather

sailwx.info

Track history (hours):
 
Tides and Currents Weather Stations Pressure Air Temp Water Temp Dewpoint Dewpoint Depression Visibility Wind Speed Wind Dir Waves Ship Positions

Stena Atlantica

Last reported at 2015-Apr-01 10:24 UTC. Time now 2015-Apr-02 03:15 UTC.
Position N 59°39' E 023°31'.

Length 245 m; draft 14.1 m.

Type: Tanker. MMSI: 319161000.

Date/timePositionNaut miles runAvg speedWind from/ knotsBaromVisibWave heightAir tempDewpointWater temp
2015-Apr-01 10:24N 59°39' E 023°31'1012.3
2015-Apr-01 09:34N 59°42' E 023°51'1212.2
2015-Apr-01 08:32N 59°45' E 024°14'1212.2
2015-Apr-01 07:33N 59°48' E 024°37'3912.2
2015-Apr-01 04:22N 59°56' E 025°53'1112.2
2015-Apr-01 03:30N 59°58' E 026°13'1112.0
2015-Apr-01 02:34N 60°01' E 026°35'1212.1
2015-Apr-01 01:33N 59°59' E 026°60'  
2015-Mar-28 04:26N 60°06' E 027°29'1113.0
2015-Mar-28 03:33N 59°60' E 027°10'1211.9
2015-Mar-28 02:33N 59°59' E 026°46'1212.4
2015-Mar-28 01:33N 59°57' E 026°22'4312.7
2015-Mar-27 22:09N 59°47' E 024°58'812.8
2015-Mar-27 21:34N 59°45' E 024°43'1312.6
2015-Mar-27 20:33N 59°42' E 024°19'1412.5
2015-Mar-27 19:25N 59°38' E 023°52'1112.7
2015-Mar-27 18:34N 59°35' E 023°31'1312.6
2015-Mar-27 17:34N 59°31' E 023°08'33712.4
2015-Mar-26 14:29N 55°37' E 015°35'1212.7
2015-Mar-26 13:33N 55°31' E 015°18'1312.8
2015-Mar-26 12:33N 55°24' E 014°59'1312.9
2015-Mar-26 11:33N 55°17' E 014°40'1211.9
2015-Mar-26 10:33N 55°09' E 014°24'1312.7
2015-Mar-26 09:33N 55°01' E 014°07'1212.4
2015-Mar-26 08:33N 54°57' E 013°47'1212.5
2015-Mar-26 07:33N 54°53' E 013°26'1212.4
2015-Mar-26 06:33N 54°49' E 013°06'1312.5
2015-Mar-26 05:32N 54°45' E 012°45'1212.2
2015-Mar-26 04:33N 54°39' E 012°27'1211.8
2015-Mar-26 03:33N 54°30' E 012°14'1010.2
2015-Mar-26 02:33N 54°25' E 011°58'1111.5
2015-Mar-26 01:33N 54°27' E 011°39'1111.0
2015-Mar-26 00:33N 54°32' E 011°22'1010.2
2015-Mar-25 23:33N 54°36' E 011°06'1010.0
2015-Mar-25 22:33N 54°42' E 010°52'114 2.9
2015-Mar-24 07:15N 56°33' E 011°40'912.6
2015-Mar-24 06:33N 56°41' E 011°48'1212.2
2015-Mar-24 05:33N 56°53' E 011°47'1312.7
2015-Mar-24 04:33N 57°05' E 011°40'1312.7
2015-Mar-24 03:34N 57°17' E 011°31'1312.9
2015-Mar-24 02:33N 57°29' E 011°21'1212.4
2015-Mar-24 01:33N 57°37' E 011°04'1312.6
2015-Mar-24 00:33N 57°46' E 010°47'10 9.7
2015-Mar-23 23:33N 57°48' E 010°29'1010.1
2015-Mar-23 22:33N 57°48' E 010°10'9 9.0
2015-Mar-23 21:33N 57°46' E 009°54'10 9.5
2015-Mar-23 20:30N 57°43' E 009°36'4310.2
2015-Mar-23 16:14N 57°23' E 008°25'711.0
2015-Mar-23 15:33N 57°19' E 008°13'1212.5
2015-Mar-23 14:33N 57°12' E 007°53'1713.1
2015-Mar-23 13:15N 57°02' E 007°28'12712.7
2015-Mar-23 03:15N 55°04' E 006°04'5112.8
2015-Mar-22 23:18N 54°20' E 005°20'1013.5
2015-Mar-22 22:33N 54°13' E 005°08'1413.7
2015-Mar-22 21:33N 54°04' E 004°51'5713.5
2015-Mar-22 17:18N 53°24' E 003°41'1114.0
2015-Mar-22 16:33N 53°14' E 003°33'1414.1
2015-Mar-22 15:33N 53°01' E 003°24'1413.7
2015-Mar-22 14:33N 52°49' E 003°16'1312.6
2015-Mar-22 13:32N 52°36' E 003°12'1312.1
2015-Mar-22 12:30N 52°24' E 003°17'1011.0
2015-Mar-22 11:33N 52°14' E 003°24'1212.3
2015-Mar-22 10:33N 52°06' E 003°38'  
Track history (hours):
 
Tides and Currents Weather Stations Pressure Air Temp Water Temp Dewpoint Dewpoint Depression Visibility Wind Speed Wind Dir Waves Ship Positions

Stena Atlantica

Last reported at 2015-Apr-01 10:24 UTC. Time now 2015-Apr-02 03:15 UTC.
Position N 59°39' E 023°31'.

Length 245 m; draft 14.1 m.

Type: Tanker. MMSI: 319161000.

Date/timePositionNaut miles runAvg speedWind from/ knotsBaromVisibWave heightAir tempDewpointWater temp
2015-Apr-01 10:24N 59°39' E 023°31'1012.3
2015-Apr-01 09:34N 59°42' E 023°51'1212.2
2015-Apr-01 08:32N 59°45' E 024°14'1212.2
2015-Apr-01 07:33N 59°48' E 024°37'3912.2
2015-Apr-01 04:22N 59°56' E 025°53'1112.2
2015-Apr-01 03:30N 59°58' E 026°13'1112.0
2015-Apr-01 02:34N 60°01' E 026°35'1212.1
2015-Apr-01 01:33N 59°59' E 026°60'  
2015-Mar-28 04:26N 60°06' E 027°29'1113.0
2015-Mar-28 03:33N 59°60' E 027°10'1211.9
2015-Mar-28 02:33N 59°59' E 026°46'1212.4
2015-Mar-28 01:33N 59°57' E 026°22'4312.7
2015-Mar-27 22:09N 59°47' E 024°58'812.8
2015-Mar-27 21:34N 59°45' E 024°43'1312.6
2015-Mar-27 20:33N 59°42' E 024°19'1412.5
2015-Mar-27 19:25N 59°38' E 023°52'1112.7
2015-Mar-27 18:34N 59°35' E 023°31'1312.6
2015-Mar-27 17:34N 59°31' E 023°08'33712.4
2015-Mar-26 14:29N 55°37' E 015°35'1212.7
2015-Mar-26 13:33N 55°31' E 015°18'1312.8
2015-Mar-26 12:33N 55°24' E 014°59'1312.9
2015-Mar-26 11:33N 55°17' E 014°40'1211.9
2015-Mar-26 10:33N 55°09' E 014°24'1312.7
2015-Mar-26 09:33N 55°01' E 014°07'1212.4
2015-Mar-26 08:33N 54°57' E 013°47'1212.5
2015-Mar-26 07:33N 54°53' E 013°26'1212.4
2015-Mar-26 06:33N 54°49' E 013°06'1312.5
2015-Mar-26 05:32N 54°45' E 012°45'1212.2
2015-Mar-26 04:33N 54°39' E 012°27'1211.8
2015-Mar-26 03:33N 54°30' E 012°14'1010.2
2015-Mar-26 02:33N 54°25' E 011°58'1111.5
2015-Mar-26 01:33N 54°27' E 011°39'1111.0
2015-Mar-26 00:33N 54°32' E 011°22'1010.2
2015-Mar-25 23:33N 54°36' E 011°06'1010.0
2015-Mar-25 22:33N 54°42' E 010°52'114 2.9
2015-Mar-24 07:15N 56°33' E 011°40'912.6
2015-Mar-24 06:33N 56°41' E 011°48'1212.2
2015-Mar-24 05:33N 56°53' E 011°47'1312.7
2015-Mar-24 04:33N 57°05' E 011°40'1312.7
2015-Mar-24 03:34N 57°17' E 011°31'1312.9
2015-Mar-24 02:33N 57°29' E 011°21'1212.4
2015-Mar-24 01:33N 57°37' E 011°04'1312.6
2015-Mar-24 00:33N 57°46' E 010°47'10 9.7
2015-Mar-23 23:33N 57°48' E 010°29'1010.1
2015-Mar-23 22:33N 57°48' E 010°10'9 9.0
2015-Mar-23 21:33N 57°46' E 009°54'10 9.5
2015-Mar-23 20:30N 57°43' E 009°36'4310.2
2015-Mar-23 16:14N 57°23' E 008°25'711.0
2015-Mar-23 15:33N 57°19' E 008°13'1212.5
2015-Mar-23 14:33N 57°12' E 007°53'1713.1
2015-Mar-23 13:15N 57°02' E 007°28'12712.7
2015-Mar-23 03:15N 55°04' E 006°04'5112.8
2015-Mar-22 23:18N 54°20' E 005°20'1013.5
2015-Mar-22 22:33N 54°13' E 005°08'1413.7
2015-Mar-22 21:33N 54°04' E 004°51'5713.5
2015-Mar-22 17:18N 53°24' E 003°41'1114.0
2015-Mar-22 16:33N 53°14' E 003°33'1414.1
2015-Mar-22 15:33N 53°01' E 003°24'1413.7
2015-Mar-22 14:33N 52°49' E 003°16'1312.6
2015-Mar-22 13:32N 52°36' E 003°12'1312.1
2015-Mar-22 12:30N 52°24' E 003°17'1011.0
2015-Mar-22 11:33N 52°14' E 003°24'1212.3
2015-Mar-22 10:33N 52°06' E 003°38'  

Dump ship's entire track history